sensor_id;sensor_type;location;lat;lon;timestamp;pressure;altitude;pressure_sealevel;temperature;humidity
23733;BME280;12047;53.450;-2.286;2022-12-10T00:03:32;100532.25;;;8.88;100.00
23733;BME280;12047;53.450;-2.286;2022-12-10T00:08:34;100519.38;;;9.04;100.00
23733;BME280;12047;53.450;-2.286;2022-12-10T00:13:35;100525.50;;;9.44;100.00
23733;BME280;12047;53.450;-2.286;2022-12-10T00:18:36;100519.81;;;9.49;100.00
23733;BME280;12047;53.450;-2.286;2022-12-10T00:23:38;100520.00;;;9.27;100.00
23733;BME280;12047;53.450;-2.286;2022-12-10T00:28:40;100519.97;;;9.57;100.00
23733;BME280;12047;53.450;-2.286;2022-12-10T00:33:42;100522.84;;;9.35;100.00
23733;BME280;12047;53.450;-2.286;2022-12-10T00:38:44;100529.72;;;9.66;100.00
23733;BME280;12047;53.450;-2.286;2022-12-10T00:43:45;100529.31;;;9.21;100.00
23733;BME280;12047;53.450;-2.286;2022-12-10T00:48:46;100529.88;;;9.15;100.00
23733;BME280;12047;53.450;-2.286;2022-12-10T00:53:49;100523.97;;;9.02;100.00
23733;BME280;12047;53.450;-2.286;2022-12-10T00:58:50;100530.19;;;8.70;100.00
23733;BME280;12047;53.450;-2.286;2022-12-10T01:03:56;100529.56;;;9.08;100.00
23733;BME280;12047;53.450;-2.286;2022-12-10T01:08:59;100525.94;;;8.79;100.00
23733;BME280;12047;53.450;-2.286;2022-12-10T01:14:00;100530.44;;;8.67;100.00
23733;BME280;12047;53.450;-2.286;2022-12-10T01:19:03;100531.00;;;9.22;100.00
23733;BME280;12047;53.450;-2.286;2022-12-10T01:24:04;100521.91;;;8.54;100.00
23733;BME280;12047;53.450;-2.286;2022-12-10T01:29:05;100519.38;;;8.73;100.00
23733;BME280;12047;53.450;-2.286;2022-12-10T01:34:08;100518.78;;;8.91;100.00
23733;BME280;12047;53.450;-2.286;2022-12-10T01:39:12;100521.41;;;8.91;100.00
23733;BME280;12047;53.450;-2.286;2022-12-10T01:49:19;100511.72;;;8.49;100.00
23733;BME280;12047;53.450;-2.286;2022-12-10T01:54:26;100509.28;;;8.58;100.00
23733;BME280;12047;53.450;-2.286;2022-12-10T01:59:28;100509.31;;;8.67;100.00
23733;BME280;12047;53.450;-2.286;2022-12-10T02:04:43;100512.84;;;8.77;100.00
23733;BME280;12047;53.450;-2.286;2022-12-10T02:09:55;100509.16;;;8.27;100.00
23733;BME280;12047;53.450;-2.286;2022-12-10T02:15:17;100508.91;;;8.30;100.00
23733;BME280;12047;53.450;-2.286;2022-12-10T02:20:24;100512.63;;;8.07;100.00
23733;BME280;12047;53.450;-2.286;2022-12-10T02:25:36;100515.41;;;8.26;100.00
23733;BME280;12047;53.450;-2.286;2022-12-10T02:30:42;100528.94;;;8.12;100.00
23733;BME280;12047;53.450;-2.286;2022-12-10T02:35:46;100527.25;;;8.64;100.00
23733;BME280;12047;53.450;-2.286;2022-12-10T02:40:53;100520.81;;;8.04;100.00
23733;BME280;12047;53.450;-2.286;2022-12-10T02:45:57;100521.31;;;9.02;100.00
23733;BME280;12047;53.450;-2.286;2022-12-10T02:50:58;100514.63;;;8.46;100.00
23733;BME280;12047;53.450;-2.286;2022-12-10T02:56:20;100505.00;;;8.87;100.00
23733;BME280;12047;53.450;-2.286;2022-12-10T03:07:12;100506.56;;;8.99;100.00
23733;BME280;12047;53.450;-2.286;2022-12-10T03:12:26;100505.47;;;9.02;100.00
23733;BME280;12047;53.450;-2.286;2022-12-10T03:17:30;100515.28;;;8.90;100.00
23733;BME280;12047;53.450;-2.286;2022-12-10T03:22:32;100517.53;;;8.64;100.00
23733;BME280;12047;53.450;-2.286;2022-12-10T03:27:35;100513.22;;;8.63;100.00
23733;BME280;12047;53.450;-2.286;2022-12-10T03:32:37;100515.31;;;8.69;100.00
23733;BME280;12047;53.450;-2.286;2022-12-10T03:37:38;100510.41;;;8.44;100.00
23733;BME280;12047;53.450;-2.286;2022-12-10T03:42:39;100506.56;;;8.48;100.00
23733;BME280;12047;53.450;-2.286;2022-12-10T03:47:40;100508.13;;;8.18;100.00
23733;BME280;12047;53.450;-2.286;2022-12-10T03:52:41;100500.28;;;8.70;100.00
23733;BME280;12047;53.450;-2.286;2022-12-10T03:57:42;100483.94;;;8.76;100.00
23733;BME280;12047;53.450;-2.286;2022-12-10T04:02:42;100484.59;;;8.47;100.00
23733;BME280;12047;53.450;-2.286;2022-12-10T04:07:43;100488.34;;;8.45;100.00
23733;BME280;12047;53.450;-2.286;2022-12-10T04:12:44;100482.69;;;8.17;100.00
23733;BME280;12047;53.450;-2.286;2022-12-10T04:18:05;100475.25;;;8.64;100.00
23733;BME280;12047;53.450;-2.286;2022-12-10T04:23:07;100474.59;;;8.30;100.00
23733;BME280;12047;53.450;-2.286;2022-12-10T04:28:27;100476.53;;;8.70;100.00
23733;BME280;12047;53.450;-2.286;2022-12-10T04:33:27;100482.97;;;8.14;100.00
23733;BME280;12047;53.450;-2.286;2022-12-10T04:38:28;100469.69;;;8.67;100.00
23733;BME280;12047;53.450;-2.286;2022-12-10T04:43:29;100474.78;;;8.17;100.00
23733;BME280;12047;53.450;-2.286;2022-12-10T04:48:30;100474.97;;;8.05;100.00
23733;BME280;12047;53.450;-2.286;2022-12-10T04:53:30;100468.38;;;8.52;100.00
23733;BME280;12047;53.450;-2.286;2022-12-10T04:58:32;100469.38;;;8.19;100.00
23733;BME280;12047;53.450;-2.286;2022-12-10T05:03:34;100466.59;;;8.20;100.00
23733;BME280;12047;53.450;-2.286;2022-12-10T05:08:36;100467.78;;;8.07;100.00
23733;BME280;12047;53.450;-2.286;2022-12-10T05:13:38;100462.50;;;8.28;100.00
23733;BME280;12047;53.450;-2.286;2022-12-10T05:18:39;100462.78;;;8.76;100.00
23733;BME280;12047;53.450;-2.286;2022-12-10T05:23:44;100470.88;;;8.53;100.00
23733;BME280;12047;53.450;-2.286;2022-12-10T05:28:51;100459.03;;;8.27;100.00
23733;BME280;12047;53.450;-2.286;2022-12-10T05:33:54;100471.75;;;8.84;100.00
23733;BME280;12047;53.450;-2.286;2022-12-10T05:38:56;100467.53;;;8.51;100.00
23733;BME280;12047;53.450;-2.286;2022-12-10T05:43:58;100469.28;;;8.41;100.00
23733;BME280;12047;53.450;-2.286;2022-12-10T05:49:00;100475.44;;;8.31;100.00
23733;BME280;12047;53.450;-2.286;2022-12-10T05:54:04;100462.34;;;8.71;100.00
23733;BME280;12047;53.450;-2.286;2022-12-10T05:59:05;100468.50;;;8.30;100.00
23733;BME280;12047;53.450;-2.286;2022-12-10T06:04:06;100456.91;;;8.63;100.00
23733;BME280;12047;53.450;-2.286;2022-12-10T06:09:11;100453.44;;;8.41;100.00
23733;BME280;12047;53.450;-2.286;2022-12-10T06:14:12;100452.25;;;7.93;100.00
23733;BME280;12047;53.450;-2.286;2022-12-10T06:19:12;100446.94;;;8.45;100.00
23733;BME280;12047;53.450;-2.286;2022-12-10T06:24:13;100440.56;;;8.48;100.00
23733;BME280;12047;53.450;-2.286;2022-12-10T06:29:14;100447.97;;;8.33;100.00
23733;BME280;12047;53.450;-2.286;2022-12-10T06:34:14;100452.19;;;8.25;100.00
23733;BME280;12047;53.450;-2.286;2022-12-10T06:39:15;100451.75;;;8.61;100.00
23733;BME280;12047;53.450;-2.286;2022-12-10T06:44:16;100446.16;;;8.13;100.00
23733;BME280;12047;53.450;-2.286;2022-12-10T06:49:16;100446.81;;;8.77;100.00
23733;BME280;12047;53.450;-2.286;2022-12-10T06:54:17;100447.25;;;8.52;100.00
23733;BME280;12047;53.450;-2.286;2022-12-10T06:59:17;100444.56;;;8.73;100.00
23733;BME280;12047;53.450;-2.286;2022-12-10T07:04:20;100442.09;;;8.50;100.00
23733;BME280;12047;53.450;-2.286;2022-12-10T07:09:21;100438.38;;;8.93;100.00
23733;BME280;12047;53.450;-2.286;2022-12-10T07:14:21;100447.63;;;9.08;100.00
23733;BME280;12047;53.450;-2.286;2022-12-10T07:19:22;100450.91;;;8.61;100.00
23733;BME280;12047;53.450;-2.286;2022-12-10T07:24:23;100454.91;;;8.55;100.00
23733;BME280;12047;53.450;-2.286;2022-12-10T07:29:23;100455.28;;;8.50;100.00
23733;BME280;12047;53.450;-2.286;2022-12-10T07:34:26;100457.78;;;8.73;100.00
23733;BME280;12047;53.450;-2.286;2022-12-10T07:39:29;100461.88;;;8.35;100.00
23733;BME280;12047;53.450;-2.286;2022-12-10T07:44:38;100458.56;;;8.22;100.00
23733;BME280;12047;53.450;-2.286;2022-12-10T07:49:39;100470.78;;;7.70;100.00
23733;BME280;12047;53.450;-2.286;2022-12-10T07:54:45;100457.31;;;8.16;100.00
23733;BME280;12047;53.450;-2.286;2022-12-10T07:59:46;100474.47;;;7.90;100.00
23733;BME280;12047;53.450;-2.286;2022-12-10T08:04:47;100466.09;;;8.06;100.00
23733;BME280;12047;53.450;-2.286;2022-12-10T08:09:48;100463.28;;;7.66;100.00
23733;BME280;12047;53.450;-2.286;2022-12-10T08:14:49;100460.91;;;8.15;100.00
23733;BME280;12047;53.450;-2.286;2022-12-10T08:19:49;100456.41;;;8.48;100.00
23733;BME280;12047;53.450;-2.286;2022-12-10T08:24:50;100464.06;;;8.51;100.00
23733;BME280;12047;53.450;-2.286;2022-12-10T08:29:51;100462.91;;;8.74;100.00
23733;BME280;12047;53.450;-2.286;2022-12-10T08:34:51;100467.22;;;8.45;100.00
23733;BME280;12047;53.450;-2.286;2022-12-10T08:39:52;100469.97;;;8.43;100.00
23733;BME280;12047;53.450;-2.286;2022-12-10T08:44:52;100471.13;;;8.09;100.00
23733;BME280;12047;53.450;-2.286;2022-12-10T08:49:53;100475.88;;;8.77;100.00
23733;BME280;12047;53.450;-2.286;2022-12-10T08:54:54;100485.38;;;7.85;100.00
23733;BME280;12047;53.450;-2.286;2022-12-10T08:59:55;100488.34;;;7.92;100.00
23733;BME280;12047;53.450;-2.286;2022-12-10T09:05:20;100486.56;;;15.07;100.00
23733;BME280;12047;53.450;-2.286;2022-12-10T09:10:27;100492.56;;;9.18;100.00
23733;BME280;12047;53.450;-2.286;2022-12-10T09:15:28;100492.44;;;8.79;100.00
23733;BME280;12047;53.450;-2.286;2022-12-10T09:20:29;100493.09;;;8.30;100.00
23733;BME280;12047;53.450;-2.286;2022-12-10T09:25:30;100479.56;;;8.24;100.00
23733;BME280;12047;53.450;-2.286;2022-12-10T09:30:30;100494.59;;;7.91;100.00
23733;BME280;12047;53.450;-2.286;2022-12-10T09:35:31;100493.56;;;8.03;100.00
23733;BME280;12047;53.450;-2.286;2022-12-10T09:40:59;100498.03;;;8.03;100.00
23733;BME280;12047;53.450;-2.286;2022-12-10T09:52:02;100498.88;;;8.24;100.00
23733;BME280;12047;53.450;-2.286;2022-12-10T09:57:07;100501.53;;;8.45;100.00
23733;BME280;12047;53.450;-2.286;2022-12-10T10:02:26;100504.44;;;8.63;100.00
23733;BME280;12047;53.450;-2.286;2022-12-10T10:07:29;100512.97;;;8.13;100.00
23733;BME280;12047;53.450;-2.286;2022-12-10T10:12:33;100516.47;;;8.03;100.00
23733;BME280;12047;53.450;-2.286;2022-12-10T10:17:36;100512.38;;;8.63;100.00
23733;BME280;12047;53.450;-2.286;2022-12-10T10:22:37;100514.22;;;8.51;100.00
23733;BME280;12047;53.450;-2.286;2022-12-10T10:27:38;100513.97;;;8.54;100.00
23733;BME280;12047;53.450;-2.286;2022-12-10T10:32:49;100517.22;;;8.37;100.00
23733;BME280;12047;53.450;-2.286;2022-12-10T10:38:06;100515.22;;;8.18;100.00
23733;BME280;12047;53.450;-2.286;2022-12-10T10:43:31;100510.16;;;8.47;100.00
23733;BME280;12047;53.450;-2.286;2022-12-10T10:48:32;100512.41;;;8.72;100.00
23733;BME280;12047;53.450;-2.286;2022-12-10T10:53:43;100520.34;;;8.19;100.00
23733;BME280;12047;53.450;-2.286;2022-12-10T10:58:49;100510.28;;;8.66;100.00
23733;BME280;12047;53.450;-2.286;2022-12-10T11:09:07;100517.94;;;8.90;100.00
23733;BME280;12047;53.450;-2.286;2022-12-10T11:14:28;100514.56;;;9.18;100.00
23733;BME280;12047;53.450;-2.286;2022-12-10T11:19:32;100519.59;;;8.91;100.00
23733;BME280;12047;53.450;-2.286;2022-12-10T11:24:32;100517.94;;;9.30;100.00
23733;BME280;12047;53.450;-2.286;2022-12-10T11:29:46;100520.50;;;9.51;100.00
23733;BME280;12047;53.450;-2.286;2022-12-10T11:45:55;100517.13;;;8.48;100.00
23733;BME280;12047;53.450;-2.286;2022-12-10T11:51:07;100511.00;;;8.47;100.00
23733;BME280;12047;53.450;-2.286;2022-12-10T12:07:38;100509.66;;;8.53;100.00
23733;BME280;12047;53.450;-2.286;2022-12-10T12:18:14;100506.25;;;8.93;100.00
23733;BME280;12047;53.450;-2.286;2022-12-10T12:28:38;100495.97;;;8.90;100.00
23733;BME280;12047;53.450;-2.286;2022-12-10T12:34:51;100496.25;;;9.36;100.00
23733;BME280;12047;53.450;-2.286;2022-12-10T12:39:32;100499.34;;;9.51;100.00
23733;BME280;12047;53.450;-2.286;2022-12-10T12:49:44;100492.88;;;9.25;100.00
23733;BME280;12047;53.450;-2.286;2022-12-10T12:54:46;100491.78;;;9.27;100.00
23733;BME280;12047;53.450;-2.286;2022-12-10T13:05:13;100495.34;;;9.16;100.00
23733;BME280;12047;53.450;-2.286;2022-12-10T13:15:32;100496.50;;;10.31;100.00
23733;BME280;12047;53.450;-2.286;2022-12-10T13:20:39;100502.88;;;9.11;100.00
23733;BME280;12047;53.450;-2.286;2022-12-10T13:26:03;100507.88;;;9.74;100.00
23733;BME280;12047;53.450;-2.286;2022-12-10T13:31:16;100510.25;;;10.15;100.00
23733;BME280;12047;53.450;-2.286;2022-12-10T13:42:25;100503.81;;;9.50;100.00
23733;BME280;12047;53.450;-2.286;2022-12-10T14:03:42;100496.25;;;9.36;100.00
23733;BME280;12047;53.450;-2.286;2022-12-10T14:09:02;100502.19;;;9.78;100.00
23733;BME280;12047;53.450;-2.286;2022-12-10T14:14:06;100507.63;;;9.27;100.00
23733;BME280;12047;53.450;-2.286;2022-12-10T14:19:13;100509.91;;;9.01;100.00
23733;BME280;12047;53.450;-2.286;2022-12-10T14:24:27;100512.03;;;9.07;100.00
23733;BME280;12047;53.450;-2.286;2022-12-10T14:29:29;100510.03;;;8.48;100.00
23733;BME280;12047;53.450;-2.286;2022-12-10T14:34:29;100511.00;;;8.68;100.00
23733;BME280;12047;53.450;-2.286;2022-12-10T14:39:32;100519.25;;;9.05;100.00
23733;BME280;12047;53.450;-2.286;2022-12-10T14:44:37;100520.41;;;8.61;100.00
23733;BME280;12047;53.450;-2.286;2022-12-10T14:49:45;100523.91;;;9.23;100.00
23733;BME280;12047;53.450;-2.286;2022-12-10T14:54:49;100539.16;;;9.40;100.00
23733;BME280;12047;53.450;-2.286;2022-12-10T15:00:05;100539.75;;;9.72;100.00
23733;BME280;12047;53.450;-2.286;2022-12-10T15:05:16;100529.63;;;10.06;100.00
23733;BME280;12047;53.450;-2.286;2022-12-10T15:10:21;100536.84;;;9.75;100.00
23733;BME280;12047;53.450;-2.286;2022-12-10T15:15:38;100532.78;;;9.62;100.00
23733;BME280;12047;53.450;-2.286;2022-12-10T15:36:39;100545.53;;;9.47;100.00
23733;BME280;12047;53.450;-2.286;2022-12-10T15:52:30;100562.38;;;9.46;100.00
23733;BME280;12047;53.450;-2.286;2022-12-10T15:57:33;100558.16;;;9.74;100.00
23733;BME280;12047;53.450;-2.286;2022-12-10T16:02:40;100552.69;;;9.66;100.00
23733;BME280;12047;53.450;-2.286;2022-12-10T16:07:45;100549.25;;;9.94;100.00
23733;BME280;12047;53.450;-2.286;2022-12-10T16:13:11;100551.19;;;9.92;100.00
23733;BME280;12047;53.450;-2.286;2022-12-10T16:18:10;100548.66;;;9.71;100.00
23733;BME280;12047;53.450;-2.286;2022-12-10T16:23:14;100545.88;;;9.63;100.00
23733;BME280;12047;53.450;-2.286;2022-12-10T16:28:18;100546.91;;;9.32;100.00
23733;BME280;12047;53.450;-2.286;2022-12-10T16:33:24;100556.25;;;9.45;100.00
23733;BME280;12047;53.450;-2.286;2022-12-10T16:38:26;100546.13;;;8.59;100.00
23733;BME280;12047;53.450;-2.286;2022-12-10T16:43:47;100553.75;;;9.04;100.00
23733;BME280;12047;53.450;-2.286;2022-12-10T16:48:48;100542.56;;;8.91;100.00
23733;BME280;12047;53.450;-2.286;2022-12-10T16:53:49;100541.81;;;8.26;100.00
23733;BME280;12047;53.450;-2.286;2022-12-10T16:58:49;100544.31;;;8.39;100.00
23733;BME280;12047;53.450;-2.286;2022-12-10T17:03:51;100544.06;;;8.93;100.00
23733;BME280;12047;53.450;-2.286;2022-12-10T17:08:55;100534.47;;;8.92;100.00
23733;BME280;12047;53.450;-2.286;2022-12-10T17:13:56;100539.56;;;7.90;100.00
23733;BME280;12047;53.450;-2.286;2022-12-10T17:18:57;100538.94;;;8.29;100.00
23733;BME280;12047;53.450;-2.286;2022-12-10T17:23:58;100535.31;;;8.62;100.00
23733;BME280;12047;53.450;-2.286;2022-12-10T17:29:26;100532.78;;;8.61;100.00
23733;BME280;12047;53.450;-2.286;2022-12-10T17:34:28;100540.13;;;9.08;100.00
23733;BME280;12047;53.450;-2.286;2022-12-10T17:39:30;100538.56;;;8.75;100.00
23733;BME280;12047;53.450;-2.286;2022-12-10T17:44:34;100538.00;;;9.33;100.00
23733;BME280;12047;53.450;-2.286;2022-12-10T17:49:35;100537.88;;;9.34;100.00
23733;BME280;12047;53.450;-2.286;2022-12-10T17:54:37;100539.53;;;9.35;100.00
23733;BME280;12047;53.450;-2.286;2022-12-10T17:59:38;100539.47;;;8.85;100.00
23733;BME280;12047;53.450;-2.286;2022-12-10T18:04:52;100539.06;;;8.90;100.00
23733;BME280;12047;53.450;-2.286;2022-12-10T18:09:57;100548.06;;;9.48;100.00
23733;BME280;12047;53.450;-2.286;2022-12-10T18:14:58;100552.63;;;9.37;100.00
23733;BME280;12047;53.450;-2.286;2022-12-10T18:19:59;100548.25;;;9.76;100.00
23733;BME280;12047;53.450;-2.286;2022-12-10T18:25:00;100546.03;;;8.70;100.00
23733;BME280;12047;53.450;-2.286;2022-12-10T18:30:01;100551.72;;;9.57;100.00
23733;BME280;12047;53.450;-2.286;2022-12-10T18:35:02;100553.69;;;9.65;100.00
23733;BME280;12047;53.450;-2.286;2022-12-10T18:40:12;100543.84;;;9.36;100.00
23733;BME280;12047;53.450;-2.286;2022-12-10T18:45:13;100550.63;;;9.79;100.00
23733;BME280;12047;53.450;-2.286;2022-12-10T18:50:26;100549.34;;;8.63;100.00
23733;BME280;12047;53.450;-2.286;2022-12-10T18:55:27;100545.31;;;8.68;100.00
23733;BME280;12047;53.450;-2.286;2022-12-10T19:00:28;100537.44;;;9.29;100.00
23733;BME280;12047;53.450;-2.286;2022-12-10T19:05:28;100552.06;;;9.03;100.00
23733;BME280;12047;53.450;-2.286;2022-12-10T19:10:30;100551.66;;;9.38;100.00
23733;BME280;12047;53.450;-2.286;2022-12-10T19:15:31;100547.53;;;9.54;100.00
23733;BME280;12047;53.450;-2.286;2022-12-10T19:20:32;100553.13;;;8.91;100.00
23733;BME280;12047;53.450;-2.286;2022-12-10T19:25:33;100552.59;;;9.27;100.00
23733;BME280;12047;53.450;-2.286;2022-12-10T19:30:33;100554.25;;;9.78;100.00
23733;BME280;12047;53.450;-2.286;2022-12-10T19:35:34;100556.47;;;9.73;100.00
23733;BME280;12047;53.450;-2.286;2022-12-10T19:40:35;100558.66;;;9.18;100.00
23733;BME280;12047;53.450;-2.286;2022-12-10T19:45:35;100554.66;;;8.93;100.00
23733;BME280;12047;53.450;-2.286;2022-12-10T19:50:39;100555.69;;;9.42;100.00
23733;BME280;12047;53.450;-2.286;2022-12-10T19:55:39;100553.16;;;9.40;100.00
23733;BME280;12047;53.450;-2.286;2022-12-10T20:00:40;100552.41;;;9.19;100.00
23733;BME280;12047;53.450;-2.286;2022-12-10T20:05:41;100562.59;;;9.64;100.00
23733;BME280;12047;53.450;-2.286;2022-12-10T20:10:41;100562.50;;;10.81;100.00
23733;BME280;12047;53.450;-2.286;2022-12-10T20:15:44;100556.94;;;9.38;100.00
23733;BME280;12047;53.450;-2.286;2022-12-10T20:20:47;100557.03;;;9.27;100.00
23733;BME280;12047;53.450;-2.286;2022-12-10T20:25:49;100549.81;;;9.98;100.00
23733;BME280;12047;53.450;-2.286;2022-12-10T20:30:49;100566.69;;;9.87;100.00
23733;BME280;12047;53.450;-2.286;2022-12-10T20:35:51;100564.81;;;9.68;100.00
23733;BME280;12047;53.450;-2.286;2022-12-10T20:40:54;100565.63;;;10.28;100.00
23733;BME280;12047;53.450;-2.286;2022-12-10T20:45:54;100562.38;;;10.15;100.00
23733;BME280;12047;53.450;-2.286;2022-12-10T20:50:56;100568.94;;;10.49;100.00
23733;BME280;12047;53.450;-2.286;2022-12-10T20:55:57;100572.94;;;9.86;100.00
23733;BME280;12047;53.450;-2.286;2022-12-10T21:00:57;100560.72;;;10.14;100.00
23733;BME280;12047;53.450;-2.286;2022-12-10T21:06:01;100557.94;;;10.25;100.00
23733;BME280;12047;53.450;-2.286;2022-12-10T21:11:07;100572.00;;;10.64;100.00
23733;BME280;12047;53.450;-2.286;2022-12-10T21:16:13;100567.53;;;10.74;100.00
23733;BME280;12047;53.450;-2.286;2022-12-10T21:21:15;100569.34;;;10.64;100.00
23733;BME280;12047;53.450;-2.286;2022-12-10T21:26:16;100564.31;;;9.84;100.00
23733;BME280;12047;53.450;-2.286;2022-12-10T21:31:23;100562.94;;;10.09;100.00
23733;BME280;12047;53.450;-2.286;2022-12-10T21:36:30;100563.78;;;10.57;100.00
23733;BME280;12047;53.450;-2.286;2022-12-10T21:41:33;100576.97;;;11.88;100.00
23733;BME280;12047;53.450;-2.286;2022-12-10T21:46:53;100579.19;;;11.38;100.00
23733;BME280;12047;53.450;-2.286;2022-12-10T21:51:53;100580.09;;;11.19;100.00
23733;BME280;12047;53.450;-2.286;2022-12-10T21:56:54;100578.56;;;11.16;100.00
23733;BME280;12047;53.450;-2.286;2022-12-10T22:01:55;100580.88;;;10.92;100.00
23733;BME280;12047;53.450;-2.286;2022-12-10T22:06:56;100578.91;;;10.94;100.00
23733;BME280;12047;53.450;-2.286;2022-12-10T22:11:56;100573.88;;;11.01;100.00
23733;BME280;12047;53.450;-2.286;2022-12-10T22:16:57;100574.09;;;10.61;100.00
23733;BME280;12047;53.450;-2.286;2022-12-10T22:21:58;100578.53;;;10.70;100.00
23733;BME280;12047;53.450;-2.286;2022-12-10T22:26:58;100577.69;;;10.88;100.00
23733;BME280;12047;53.450;-2.286;2022-12-10T22:31:59;100578.03;;;10.56;100.00
23733;BME280;12047;53.450;-2.286;2022-12-10T22:37:00;100576.59;;;10.72;100.00
23733;BME280;12047;53.450;-2.286;2022-12-10T22:42:01;100571.56;;;10.78;100.00
23733;BME280;12047;53.450;-2.286;2022-12-10T22:47:02;100580.09;;;10.63;100.00
23733;BME280;12047;53.450;-2.286;2022-12-10T22:52:03;100578.97;;;10.75;100.00
23733;BME280;12047;53.450;-2.286;2022-12-10T22:57:04;100583.00;;;10.79;100.00
23733;BME280;12047;53.450;-2.286;2022-12-10T23:02:05;100589.00;;;9.14;100.00
23733;BME280;12047;53.450;-2.286;2022-12-10T23:07:06;100598.63;;;8.41;100.00
23733;BME280;12047;53.450;-2.286;2022-12-10T23:12:08;100596.28;;;8.27;100.00
23733;BME280;12047;53.450;-2.286;2022-12-10T23:23:25;100578.63;;;9.01;100.00
23733;BME280;12047;53.450;-2.286;2022-12-10T23:28:26;100585.66;;;9.21;100.00
23733;BME280;12047;53.450;-2.286;2022-12-10T23:33:26;100583.22;;;8.58;100.00
23733;BME280;12047;53.450;-2.286;2022-12-10T23:38:34;100596.84;;;7.99;100.00
23733;BME280;12047;53.450;-2.286;2022-12-10T23:43:35;100591.72;;;8.61;100.00
23733;BME280;12047;53.450;-2.286;2022-12-10T23:48:36;100595.84;;;8.75;100.00
23733;BME280;12047;53.450;-2.286;2022-12-10T23:53:37;100595.84;;;8.54;100.00
23733;BME280;12047;53.450;-2.286;2022-12-10T23:58:38;100599.69;;;8.50;100.00
